createdAt,value
2018-05-14T00:00:38.516Z,0
2018-05-14T00:01:37.299Z,0
2018-05-14T00:02:38.259Z,0
2018-05-14T00:03:38.575Z,0
2018-05-14T00:04:37.511Z,0
2018-05-14T00:05:37.483Z,0
2018-05-14T00:06:37.266Z,0
2018-05-14T00:07:38.480Z,0
2018-05-14T00:08:37.552Z,0
2018-05-14T00:09:37.759Z,0
2018-05-14T00:10:37.965Z,0
2018-05-14T00:11:38.129Z,0
2018-05-14T00:12:37.920Z,0
2018-05-14T00:13:38.047Z,0
2018-05-14T00:14:38.176Z,0
2018-05-14T00:15:37.897Z,0
2018-05-14T00:16:38.018Z,0
2018-05-14T00:17:37.600Z,0
2018-05-14T00:18:37.769Z,0
2018-05-14T00:19:37.925Z,0
2018-05-14T00:20:37.873Z,0
2018-05-14T00:21:37.945Z,0
2018-05-14T00:23:19.184Z,0
2018-05-14T00:24:19.099Z,0
2018-05-14T00:25:18.799Z,0
2018-05-14T00:26:19.910Z,0
2018-05-14T00:27:19.578Z,0
2018-05-14T00:28:19.689Z,0
2018-05-14T00:29:19.482Z,0
2018-05-14T00:30:19.552Z,0
2018-05-14T00:31:19.612Z,0
2018-05-14T00:32:19.770Z,0
2018-05-14T00:33:39.909Z,0
2018-05-14T00:34:40.842Z,0
2018-05-14T00:35:40.762Z,0
2018-05-14T00:37:01.192Z,0
2018-05-14T00:38:21.782Z,0
2018-05-14T00:39:22.474Z,0
2018-05-14T00:40:22.262Z,0
2018-05-14T00:41:42.870Z,0
2018-05-14T00:42:44.003Z,0
2018-05-14T00:43:44.016Z,0
2018-05-14T00:44:43.598Z,0
2018-05-14T00:45:43.826Z,0
2018-05-14T00:46:43.565Z,0
2018-05-14T00:48:04.301Z,0
2018-05-14T00:49:04.434Z,0
2018-05-14T00:50:04.112Z,0
2018-05-14T00:51:05.055Z,0
2018-05-14T00:52:04.698Z,0
2018-05-14T00:53:24.836Z,0
2018-05-14T00:54:25.576Z,0
2018-05-14T00:55:25.277Z,0
2018-05-14T00:56:25.447Z,0
2018-05-14T00:57:25.456Z,0
2018-05-14T00:58:46.720Z,0
2018-05-14T00:59:47.001Z,0
2018-05-14T01:00:47.046Z,0
2018-05-14T01:02:07.246Z,0
2018-05-14T01:03:08.296Z,0
2018-05-14T01:04:08.339Z,0
2018-05-14T01:05:08.576Z,0
2018-05-14T01:06:07.600Z,0
2018-05-14T01:07:07.294Z,0
2018-05-14T01:08:28.713Z,0
2018-05-14T01:09:28.378Z,0
2018-05-14T01:10:29.146Z,0
2018-05-14T01:11:28.888Z,0
2018-05-14T01:12:28.994Z,0
2018-05-14T01:13:28.791Z,0
2018-05-14T01:14:28.899Z,0
2018-05-14T01:15:28.960Z,0
2018-05-14T01:16:28.784Z,0
2018-05-14T01:17:28.531Z,0
2018-05-14T01:18:29.576Z,0
2018-05-14T01:19:29.460Z,0
2018-05-14T01:20:29.510Z,0
2018-05-14T01:21:29.626Z,0
2018-05-14T01:22:29.265Z,0
2018-05-14T01:23:29.208Z,0
2018-05-14T01:24:28.945Z,0
2018-05-14T01:25:29.027Z,0
2018-05-14T01:26:29.894Z,0
2018-05-14T01:27:29.189Z,0
2018-05-14T01:28:28.758Z,0
2018-05-14T01:29:28.432Z,0
2018-05-14T01:30:29.136Z,0
2018-05-14T01:31:28.761Z,0
2018-05-14T01:32:28.434Z,0
2018-05-14T01:33:29.268Z,0
2018-05-14T01:34:28.910Z,0
2018-05-14T01:35:28.890Z,0
2018-05-14T01:36:28.591Z,0
2018-05-14T01:37:49.164Z,0
2018-05-14T01:38:48.903Z,0
2018-05-14T01:39:49.923Z,0
2018-05-14T01:40:49.821Z,0
2018-05-14T01:41:49.352Z,0
2018-05-14T01:43:30.702Z,0
2018-05-14T01:44:51.046Z,0
2018-05-14T01:45:51.541Z,0
2018-05-14T01:46:51.663Z,0
2018-05-14T01:48:12.526Z,0
2018-05-14T01:49:13.025Z,0
2018-05-14T01:50:13.061Z,0
2018-05-14T01:51:12.741Z,0
2018-05-14T01:52:33.143Z,0
2018-05-14T01:53:34.289Z,0
2018-05-14T01:54:33.991Z,0
2018-05-14T01:55:33.669Z,0
2018-05-14T01:56:33.386Z,0
2018-05-14T01:57:34.305Z,0
2018-05-14T01:58:55.073Z,0
2018-05-14T01:59:55.249Z,0
2018-05-14T02:00:55.257Z,0
2018-05-14T02:01:55.408Z,0
2018-05-14T02:02:55.007Z,0
2018-05-14T02:03:54.749Z,0
2018-05-14T02:04:55.854Z,0
2018-05-14T02:05:55.676Z,0
2018-05-14T02:06:55.421Z,0
2018-05-14T02:07:55.017Z,0
2018-05-14T02:08:54.765Z,0
2018-05-14T02:09:55.941Z,0
2018-05-14T02:10:55.505Z,0
2018-05-14T02:11:55.209Z,0
2018-05-14T02:13:15.989Z,0
2018-05-14T02:14:16.648Z,0
2018-05-14T02:15:16.321Z,0
2018-05-14T02:16:36.445Z,0
2018-05-14T02:17:37.204Z,0
2018-05-14T02:18:57.643Z,0
2018-05-14T02:19:58.709Z,0
2018-05-14T02:20:59.158Z,0
2018-05-14T02:22:18.190Z,0
2018-05-14T02:23:19.302Z,0
2018-05-14T02:24:19.049Z,0
2018-05-14T02:25:19.170Z,0
2018-05-14T02:26:19.214Z,0
2018-05-14T02:27:18.873Z,0
2018-05-14T02:28:18.611Z,0
2018-05-14T02:30:00.201Z,0
2018-05-14T02:31:00.904Z,0
2018-05-14T02:32:21.051Z,0
2018-05-14T02:33:22.211Z,0
2018-05-14T02:34:22.228Z,0
2018-05-14T02:35:21.435Z,0
2018-05-14T02:36:22.293Z,0
2018-05-14T02:37:21.895Z,0
2018-05-14T02:38:22.149Z,0
2018-05-14T02:39:21.953Z,0
2018-05-14T02:40:21.855Z,0
2018-05-14T02:41:24.121Z,0
2018-05-14T02:42:22.278Z,0
2018-05-14T02:43:21.837Z,0
2018-05-14T02:44:21.829Z,0
2018-05-14T02:45:21.520Z,0
2018-05-14T02:46:21.224Z,0
2018-05-14T02:47:22.128Z,0
2018-05-14T02:48:22.758Z,0
2018-05-14T02:49:21.638Z,0
2018-05-14T02:50:21.315Z,0
2018-05-14T02:51:21.632Z,0
2018-05-14T02:52:41.757Z,0
2018-05-14T02:53:42.442Z,0
2018-05-14T02:54:42.441Z,0
2018-05-14T02:55:42.136Z,0
2018-05-14T02:57:03.820Z,0
2018-05-14T02:58:24.831Z,0
2018-05-14T02:59:25.577Z,0
2018-05-14T03:00:25.478Z,0
2018-05-14T03:01:45.910Z,0
2018-05-14T03:02:46.838Z,0
2018-05-14T03:03:46.398Z,0
2018-05-14T03:04:46.459Z,0
2018-05-14T03:05:46.554Z,0
2018-05-14T03:06:46.641Z,0
2018-05-14T03:07:46.573Z,0
2018-05-14T03:08:46.289Z,0
2018-05-14T03:09:45.974Z,0
2018-05-14T03:10:45.949Z,0
2018-05-14T03:11:46.090Z,0
2018-05-14T03:12:45.892Z,0
2018-05-14T03:14:07.311Z,0
2018-05-14T03:15:08.017Z,0
2018-05-14T03:16:07.826Z,0
2018-05-14T03:17:07.939Z,0
2018-05-14T03:18:08.074Z,0
2018-05-14T03:19:07.641Z,0
2018-05-14T03:20:07.548Z,0
2018-05-14T03:21:08.630Z,1
2018-05-14T03:22:07.856Z,1
2018-05-14T03:23:07.558Z,1
2018-05-14T03:24:07.379Z,1
2018-05-14T03:25:08.017Z,1
2018-05-14T03:26:08.137Z,1
2018-05-14T03:27:08.261Z,1
2018-05-14T03:28:08.449Z,1
2018-05-14T03:29:07.252Z,2
2018-05-14T03:30:08.330Z,2
2018-05-14T03:31:08.537Z,2
2018-05-14T03:32:07.382Z,2
2018-05-14T03:33:08.515Z,2
2018-05-14T03:34:07.740Z,3
2018-05-14T03:35:07.455Z,3
2018-05-14T03:36:28.521Z,3
2018-05-14T03:37:28.663Z,3
2018-05-14T03:38:29.346Z,4
2018-05-14T03:39:29.041Z,4
2018-05-14T03:40:28.775Z,4
2018-05-14T03:41:28.586Z,5
2018-05-14T03:42:28.655Z,5
2018-05-14T03:43:28.821Z,6
2018-05-14T03:44:49.905Z,6
2018-05-14T03:45:49.573Z,6
2018-05-14T03:46:50.317Z,7
2018-05-14T03:47:50.019Z,7
2018-05-14T03:48:49.667Z,8
2018-05-14T03:49:50.756Z,8
2018-05-14T03:50:50.822Z,9
2018-05-14T03:51:50.051Z,9
2018-05-14T03:52:49.824Z,9
2018-05-14T03:53:50.962Z,10
2018-05-14T03:55:30.896Z,11
2018-05-14T03:56:52.482Z,11
2018-05-14T03:57:52.620Z,12
2018-05-14T03:59:13.490Z,12
2018-05-14T04:00:13.334Z,13
2018-05-14T04:01:14.051Z,13
2018-05-14T04:02:34.979Z,14
2018-05-14T04:03:34.644Z,14
2018-05-14T04:04:35.744Z,15
2018-05-14T04:05:34.531Z,15
2018-05-14T04:06:35.564Z,16
2018-05-14T04:07:35.754Z,16
2018-05-14T04:08:35.571Z,17
2018-05-14T04:09:35.248Z,18
2018-05-14T04:10:35.780Z,18
2018-05-14T04:11:35.559Z,18
2018-05-14T04:12:35.416Z,19
2018-05-14T04:13:35.463Z,19
2018-05-14T04:14:35.073Z,20
2018-05-14T04:15:35.271Z,20
2018-05-14T04:16:35.240Z,21
2018-05-14T04:17:35.477Z,21
2018-05-14T04:18:35.397Z,22
2018-05-14T04:19:35.770Z,22
2018-05-14T04:20:34.620Z,23
2018-05-14T04:21:35.764Z,24
2018-05-14T04:22:34.855Z,24
2018-05-14T04:23:34.705Z,25
2018-05-14T04:24:34.882Z,25
2018-05-14T04:25:56.128Z,26
2018-05-14T04:26:56.907Z,26
2018-05-14T04:27:56.675Z,27
2018-05-14T04:28:56.335Z,28
2018-05-14T04:29:57.433Z,33
2018-05-14T04:30:56.285Z,39
2018-05-14T04:31:56.505Z,41
2018-05-14T04:32:56.478Z,43
2018-05-14T04:33:56.283Z,43
2018-05-14T04:34:57.172Z,45
2018-05-14T04:35:56.962Z,47
2018-05-14T04:36:56.645Z,47
2018-05-14T04:37:58.289Z,46
2018-05-14T04:38:57.087Z,41
2018-05-14T04:40:18.152Z,34
2018-05-14T04:41:18.212Z,34
2018-05-14T04:42:17.929Z,38
2018-05-14T04:43:18.909Z,39
2018-05-14T04:44:18.714Z,36
2018-05-14T04:45:38.879Z,35
2018-05-14T04:46:39.533Z,35
2018-05-14T04:47:39.270Z,36
2018-05-14T04:48:39.466Z,36
2018-05-14T04:49:39.480Z,37
2018-05-14T04:50:39.521Z,38
2018-05-14T04:51:40.093Z,39
2018-05-14T04:52:40.100Z,43
2018-05-14T04:53:39.860Z,48
2018-05-14T04:54:39.556Z,47
2018-05-14T04:55:39.683Z,41
2018-05-14T04:56:39.733Z,40
2018-05-14T04:57:40.317Z,40
2018-05-14T04:58:38.998Z,41
2018-05-14T04:59:59.627Z,43
2018-05-14T05:01:00.247Z,44
2018-05-14T05:02:00.073Z,42
2018-05-14T05:02:59.725Z,42
2018-05-14T05:04:00.419Z,42
2018-05-14T05:05:00.356Z,43
2018-05-14T05:05:59.934Z,43
2018-05-14T05:07:00.022Z,43
2018-05-14T05:08:20.494Z,44
2018-05-14T05:09:21.452Z,44
2018-05-14T05:10:21.285Z,44
2018-05-14T05:11:21.138Z,45
2018-05-14T05:12:42.604Z,45
2018-05-14T05:13:42.466Z,46
2018-05-14T05:14:42.561Z,45
2018-05-14T05:15:43.674Z,46
2018-05-14T05:16:42.574Z,46
2018-05-14T05:18:03.643Z,49
2018-05-14T05:19:03.488Z,49
2018-05-14T05:20:04.063Z,54
2018-05-14T05:21:24.410Z,73
2018-05-14T05:22:24.227Z,91
2018-05-14T05:23:25.020Z,94
2018-05-14T05:24:45.896Z,96
2018-05-14T05:25:46.149Z,97
2018-05-14T05:26:46.113Z,97
2018-05-14T05:27:45.954Z,98
2018-05-14T05:28:46.454Z,97
2018-05-14T05:29:46.302Z,98
2018-05-14T05:30:46.225Z,99
2018-05-14T05:31:46.545Z,99
2018-05-14T05:32:46.831Z,99
2018-05-14T05:33:46.512Z,100
2018-05-14T05:34:46.465Z,101
2018-05-14T05:35:46.258Z,101
2018-05-14T05:36:47.013Z,101
2018-05-14T05:37:47.031Z,102
2018-05-14T05:38:46.612Z,104
2018-05-14T05:40:07.867Z,108
2018-05-14T05:41:08.728Z,114
2018-05-14T05:42:08.807Z,116
2018-05-14T05:43:37.462Z,107
2018-05-14T05:44:32.781Z,105
2018-05-14T05:46:33.633Z,108
2018-05-14T05:47:55.653Z,111
2018-05-14T05:48:55.480Z,114
2018-05-14T05:49:56.410Z,116
2018-05-14T05:50:56.314Z,118
2018-05-14T05:51:56.041Z,121
2018-05-14T05:52:56.030Z,121
2018-05-14T05:53:55.955Z,121
2018-05-14T05:54:55.840Z,121
2018-05-14T05:55:56.110Z,122
2018-05-14T05:56:55.931Z,126
2018-05-14T05:57:55.681Z,122
2018-05-14T05:58:55.639Z,118
2018-05-14T05:59:55.847Z,119
2018-05-14T06:00:56.079Z,122
2018-05-14T06:01:55.966Z,132
2018-05-14T06:02:55.770Z,132
2018-05-14T06:03:55.610Z,137
2018-05-14T06:05:08.134Z,141
2018-05-14T06:06:16.691Z,146
2018-05-14T06:07:17.556Z,151
2018-05-14T06:08:17.425Z,153
2018-05-14T06:09:17.658Z,158
2018-05-14T06:10:17.719Z,165
2018-05-14T06:11:17.929Z,173
2018-05-14T06:12:17.628Z,180
2018-05-14T06:13:38.316Z,186
2018-05-14T06:14:38.653Z,197
2018-05-14T06:15:59.552Z,214
2018-05-14T06:17:19.950Z,264
2018-05-14T06:18:21.782Z,285
2018-05-14T06:19:20.630Z,249
2018-05-14T06:20:21.079Z,244
2018-05-14T06:21:20.868Z,238
2018-05-14T06:22:21.783Z,234
2018-05-14T06:23:41.926Z,239
2018-05-14T06:25:03.419Z,227
2018-05-14T06:26:24.134Z,206
2018-05-14T06:27:24.991Z,197
2018-05-14T06:28:24.879Z,200
2018-05-14T06:29:24.710Z,188
2018-05-14T06:31:09.885Z,190
2018-05-14T06:31:57.605Z,186
2018-05-14T06:32:57.952Z,186
2018-05-14T06:33:56.890Z,190
2018-05-14T06:34:59.650Z,190
2018-05-14T06:35:57.555Z,190
2018-05-14T06:36:57.471Z,189
2018-05-14T06:37:57.699Z,188
2018-05-14T06:38:57.667Z,190
2018-05-14T06:39:57.784Z,189
2018-05-14T06:40:57.625Z,191
2018-05-14T06:41:57.862Z,193
2018-05-14T06:42:57.621Z,174
2018-05-14T06:43:58.428Z,171
2018-05-14T06:44:57.308Z,178
2018-05-14T06:45:57.691Z,174
2018-05-14T06:46:57.564Z,172
2018-05-14T06:47:58.165Z,171
2018-05-14T06:48:57.005Z,169
2018-05-14T06:50:18.019Z,170
2018-05-14T06:51:18.839Z,167
2018-05-14T06:52:18.970Z,167
2018-05-14T06:53:19.025Z,167
2018-05-14T06:54:18.456Z,168
2018-05-14T06:55:18.633Z,168
2018-05-14T06:56:39.341Z,167
2018-05-14T06:57:40.673Z,168
2018-05-14T06:58:39.542Z,170
2018-05-14T06:59:39.431Z,173
2018-05-14T07:00:39.333Z,173
2018-05-14T07:01:40.252Z,175
2018-05-14T07:02:40.436Z,181
2018-05-14T07:03:40.638Z,185
2018-05-14T07:04:39.948Z,191
2018-05-14T07:05:39.676Z,196
2018-05-14T07:07:00.651Z,203
2018-05-14T07:08:00.581Z,216
2018-05-14T07:09:00.480Z,222
2018-05-14T07:10:01.962Z,222
2018-05-14T07:11:01.194Z,232
2018-05-14T07:12:01.083Z,251
2018-05-14T07:13:00.818Z,260
2018-05-14T07:14:01.001Z,252
2018-05-14T07:15:00.717Z,232
2018-05-14T07:16:21.635Z,245
2018-05-14T07:17:21.908Z,203
2018-05-14T07:18:42.900Z,192
2018-05-14T07:19:42.886Z,186
2018-05-14T07:20:42.617Z,187
2018-05-14T07:22:04.690Z,179
2018-05-14T07:23:04.616Z,176
2018-05-14T07:24:04.344Z,173
2018-05-14T07:25:04.688Z,172
2018-05-14T07:26:04.691Z,174
2018-05-14T07:27:05.061Z,177
2018-05-14T07:28:05.000Z,179
2018-05-14T07:29:04.821Z,181
2018-05-14T07:30:04.782Z,184
2018-05-14T07:31:05.033Z,188
2018-05-14T07:32:04.814Z,195
2018-05-14T07:33:04.623Z,201
2018-05-14T07:34:04.873Z,208
2018-05-14T07:35:04.959Z,211
2018-05-14T07:36:05.099Z,215
2018-05-14T07:37:05.407Z,217
2018-05-14T07:38:05.192Z,220
2018-05-14T07:39:05.657Z,228
2018-05-14T07:40:04.653Z,308
2018-05-14T07:41:05.109Z,1335
2018-05-14T07:42:05.277Z,1300
2018-05-14T07:43:05.441Z,983
2018-05-14T07:44:04.313Z,907
2018-05-14T07:45:05.609Z,866
2018-05-14T07:46:04.586Z,814
2018-05-14T07:47:04.619Z,763
2018-05-14T07:48:15.469Z,717
2018-05-14T07:49:05.258Z,699
2018-05-14T07:50:06.455Z,680
2018-05-14T07:51:04.730Z,677
2018-05-14T07:52:47.257Z,661
2018-05-14T07:53:47.291Z,654
2018-05-14T07:54:47.530Z,657
2018-05-14T07:55:47.660Z,664
2018-05-14T07:56:47.777Z,652
2018-05-14T07:57:47.435Z,616
2018-05-14T07:58:47.693Z,574
2018-05-14T07:59:48.013Z,581
2018-05-14T08:00:46.896Z,644
2018-05-14T08:01:47.734Z,662
2018-05-14T08:03:09.095Z,651
2018-05-14T08:04:29.811Z,656
2018-05-14T08:05:29.687Z,657
2018-05-14T08:06:30.856Z,646
2018-05-14T08:07:50.225Z,662
2018-05-14T08:08:50.931Z,658
2018-05-14T08:09:50.710Z,657
2018-05-14T08:10:50.841Z,653
2018-05-14T08:12:11.899Z,638
2018-05-14T08:13:11.623Z,614
2018-05-14T08:14:12.406Z,603
2018-05-14T08:15:12.360Z,615
2018-05-14T08:16:13.047Z,642
2018-05-14T08:17:33.072Z,665
2018-05-14T08:18:33.057Z,631
2018-05-14T08:19:53.801Z,623
2018-05-14T08:20:53.644Z,626
2018-05-14T08:22:14.864Z,601
2018-05-14T08:23:15.177Z,628
2018-05-14T08:24:15.009Z,654
2018-05-14T08:25:14.886Z,634
2018-05-14T08:26:15.107Z,626
2018-05-14T08:27:14.899Z,650
2018-05-14T08:28:14.635Z,653
2018-05-14T08:29:15.832Z,637
2018-05-14T08:30:14.540Z,624
2018-05-14T08:31:15.246Z,621
2018-05-14T08:32:16.143Z,637
2018-05-14T08:33:15.040Z,644
2018-05-14T08:34:14.800Z,631
2018-05-14T08:35:14.605Z,631
2018-05-14T08:36:15.515Z,617
2018-05-14T08:37:15.236Z,620
2018-05-14T08:38:15.437Z,625
2018-05-14T08:39:15.591Z,591
2018-05-14T08:40:14.954Z,568
2018-05-14T08:41:15.047Z,585
2018-05-14T08:42:15.608Z,604
2018-05-14T08:43:14.640Z,622
2018-05-14T08:44:14.927Z,630
2018-05-14T08:45:15.258Z,651
2018-05-14T08:46:15.158Z,697
2018-05-14T08:47:14.945Z,666
2018-05-14T08:48:14.766Z,676
2018-05-14T08:49:14.759Z,722
2018-05-14T08:50:14.495Z,637
2018-05-14T08:51:16.153Z,635
2018-05-14T08:52:15.428Z,633
2018-05-14T08:53:15.204Z,631
2018-05-14T08:54:36.582Z,633
2018-05-14T08:55:36.486Z,651
2018-05-14T08:56:36.321Z,669
2018-05-14T08:57:36.657Z,694
2018-05-14T08:58:36.571Z,710
2018-05-14T08:59:36.885Z,694
2018-05-14T09:00:36.892Z,675
2018-05-14T09:01:37.048Z,684
2018-05-14T09:02:37.011Z,703
2018-05-14T09:03:57.642Z,684
2018-05-14T09:05:20.979Z,675
2018-05-14T09:06:21.528Z,662
2018-05-14T09:07:20.402Z,626
2018-05-14T09:08:22.250Z,587
2018-05-14T09:09:21.457Z,570
2018-05-14T09:10:41.554Z,565
2018-05-14T09:11:42.439Z,605
2018-05-14T09:12:42.406Z,602
2018-05-14T09:13:42.371Z,611
2018-05-14T09:14:42.513Z,645
2018-05-14T09:15:42.697Z,647
2018-05-14T09:16:41.603Z,646
2018-05-14T09:17:41.528Z,645
2018-05-14T09:18:43.218Z,658
2018-05-14T09:20:03.342Z,669
2018-05-14T09:21:03.721Z,646
2018-05-14T09:22:03.927Z,678
2018-05-14T09:23:04.210Z,677
2018-05-14T09:24:03.408Z,676
2018-05-14T09:25:03.852Z,684
2018-05-14T09:26:04.032Z,685
2018-05-14T09:27:04.241Z,675
2018-05-14T09:28:03.401Z,677
2018-05-14T09:29:03.789Z,687
2018-05-14T09:30:04.106Z,692
2018-05-14T09:31:24.788Z,739
2018-05-14T09:32:24.727Z,697
2018-05-14T09:33:25.053Z,658
2018-05-14T09:34:25.913Z,633
2018-05-14T09:35:25.104Z,637
2018-05-14T09:36:46.623Z,672
2018-05-14T09:37:46.770Z,711
2018-05-14T09:38:47.040Z,730
2018-05-14T09:39:47.246Z,709
2018-05-14T09:40:47.409Z,687
2018-05-14T09:41:46.569Z,649
2018-05-14T09:42:46.352Z,641
2018-05-14T09:43:46.183Z,649
2018-05-14T09:45:30.642Z,647
2018-05-14T09:46:30.422Z,672
2018-05-14T09:47:30.023Z,713
2018-05-14T09:48:30.983Z,712
2018-05-14T09:49:31.326Z,712
2018-05-14T09:50:53.745Z,751
2018-05-14T09:51:54.704Z,732
2018-05-14T09:53:14.610Z,666
2018-05-14T09:54:14.631Z,641
2018-05-14T09:55:14.511Z,658
2018-05-14T09:56:14.695Z,638
2018-05-14T09:57:14.881Z,598
2018-05-14T09:58:15.201Z,605
2018-05-14T09:59:15.524Z,614
2018-05-14T10:00:14.564Z,606
2018-05-14T10:01:15.990Z,616
2018-05-14T10:02:15.169Z,624
2018-05-14T10:03:35.941Z,626
2018-05-14T10:04:36.212Z,593
2018-05-14T10:05:36.369Z,587
2018-05-14T10:06:36.358Z,608
2018-05-14T10:07:36.302Z,637
2018-05-14T10:08:36.282Z,647
2018-05-14T10:09:36.390Z,645
2018-05-14T10:10:36.605Z,636
2018-05-14T10:11:36.848Z,634
2018-05-14T10:12:56.708Z,638
2018-05-14T10:13:56.492Z,630
2018-05-14T10:14:57.696Z,626
2018-05-14T10:15:57.063Z,622
2018-05-14T10:16:56.933Z,626
2018-05-14T10:17:57.140Z,639
2018-05-14T10:18:56.849Z,658
2018-05-14T10:20:17.973Z,677
2018-05-14T10:21:17.810Z,657
2018-05-14T10:22:17.707Z,619
2018-05-14T10:23:17.662Z,586
2018-05-14T10:24:17.619Z,634
2018-05-14T10:25:18.119Z,697
2018-05-14T10:26:17.914Z,651
2018-05-14T10:27:17.683Z,563
2018-05-14T10:28:17.519Z,578
2018-05-14T10:29:18.188Z,642
2018-05-14T10:30:18.337Z,675
2018-05-14T10:31:18.397Z,644
2018-05-14T10:32:39.263Z,612
2018-05-14T10:33:40.038Z,608
2018-05-14T10:34:41.257Z,599
2018-05-14T10:35:41.055Z,602
2018-05-14T10:36:40.403Z,612
2018-05-14T10:37:39.669Z,622
2018-05-14T10:38:40.869Z,621
2018-05-14T10:39:40.259Z,604
2018-05-14T10:40:39.125Z,600
2018-05-14T10:41:39.236Z,620
2018-05-14T10:42:39.483Z,646
2018-05-14T10:43:39.586Z,645
2018-05-14T10:44:39.959Z,633
2018-05-14T10:45:40.259Z,628
2018-05-14T10:46:39.936Z,631
2018-05-14T10:48:00.601Z,629
2018-05-14T10:49:01.471Z,624
2018-05-14T10:50:01.622Z,622
2018-05-14T10:51:22.806Z,612
2018-05-14T10:52:22.682Z,610
2018-05-14T10:53:43.828Z,614
2018-05-14T10:54:43.718Z,641
2018-05-14T10:55:43.992Z,640
2018-05-14T10:56:44.148Z,583
2018-05-14T10:57:44.325Z,528
2018-05-14T10:58:16.844Z,505
2018-05-14T10:59:17.138Z,456
2018-05-14T11:00:16.929Z,434
2018-05-14T11:01:39.444Z,496
2018-05-14T11:02:40.266Z,594
2018-05-14T11:03:40.199Z,672
2018-05-14T11:04:40.171Z,686
2018-05-14T11:05:41.137Z,670
2018-05-14T11:06:40.173Z,648
2018-05-14T11:08:12.476Z,650
2018-05-14T11:09:12.318Z,668
2018-05-14T11:10:13.149Z,662
2018-05-14T11:11:13.006Z,643
2018-05-14T11:12:12.739Z,665
2018-05-14T11:13:13.031Z,692
2018-05-14T11:14:12.945Z,667
2018-05-14T11:15:34.146Z,660
2018-05-14T11:16:33.819Z,652
2018-05-14T11:17:35.107Z,659
2018-05-14T11:18:34.255Z,685
2018-05-14T11:19:55.253Z,681
2018-05-14T11:20:55.334Z,683
2018-05-14T11:21:55.181Z,702
2018-05-14T11:23:16.105Z,719
2018-05-14T11:24:16.480Z,695
2018-05-14T11:25:16.697Z,700
2018-05-14T11:26:16.605Z,706
2018-05-14T11:27:16.381Z,712
2018-05-14T11:28:16.778Z,726
2018-05-14T11:29:17.041Z,737
2018-05-14T11:30:17.406Z,729
2018-05-14T11:31:16.733Z,717
2018-05-14T11:32:16.431Z,712
2018-05-14T11:33:59.540Z,698
2018-05-14T11:35:00.510Z,692
2018-05-14T11:36:00.274Z,693
2018-05-14T11:37:20.515Z,706
2018-05-14T11:38:21.531Z,725
2018-05-14T11:39:21.531Z,726
2018-05-14T11:40:21.398Z,690
2018-05-14T11:41:21.604Z,668
2018-05-14T11:42:20.525Z,655
2018-05-14T11:43:21.361Z,667
2018-05-14T11:44:21.620Z,689
2018-05-14T11:45:20.909Z,698
2018-05-14T11:46:44.653Z,747
2018-05-14T11:47:43.607Z,786
2018-05-14T11:48:44.679Z,762
2018-05-14T11:49:43.497Z,736
2018-05-14T11:50:44.369Z,744
2018-05-14T11:52:05.620Z,721
2018-05-14T11:53:05.893Z,699
2018-05-14T11:54:05.619Z,679
2018-05-14T11:55:29.267Z,672
2018-05-14T11:56:29.162Z,719
2018-05-14T11:57:29.122Z,737
2018-05-14T11:58:29.573Z,672
2018-05-14T11:59:29.913Z,637
2018-05-14T12:00:29.674Z,635
2018-05-14T12:01:29.826Z,685
2018-05-14T12:02:29.615Z,681
2018-05-14T12:03:29.667Z,687
2018-05-14T12:04:29.531Z,734
2018-05-14T12:05:29.429Z,734
2018-05-14T12:06:29.562Z,770
2018-05-14T12:07:29.438Z,749
2018-05-14T12:08:29.425Z,722
2018-05-14T12:09:29.507Z,723
2018-05-14T12:10:29.616Z,700
2018-05-14T12:11:29.711Z,677
2018-05-14T12:12:29.841Z,700
2018-05-14T12:13:29.963Z,697
2018-05-14T12:14:28.854Z,718
2018-05-14T12:15:29.231Z,758
2018-05-14T12:16:28.877Z,752
2018-05-14T12:17:29.276Z,713
2018-05-14T12:18:29.178Z,665
2018-05-14T12:19:50.560Z,614
2018-05-14T12:20:50.754Z,594
2018-05-14T12:21:50.591Z,645
2018-05-14T12:22:50.372Z,699
2018-05-14T12:23:50.642Z,709
2018-05-14T12:24:50.379Z,724
2018-05-14T12:25:50.054Z,735
2018-05-14T12:26:51.346Z,735
2018-05-14T12:27:50.689Z,742
2018-05-14T12:28:50.916Z,761
2018-05-14T12:29:51.185Z,761
2018-05-14T12:30:50.977Z,752
2018-05-14T12:31:51.388Z,747
2018-05-14T12:32:50.606Z,749
2018-05-14T12:33:50.524Z,758
2018-05-14T12:34:50.868Z,759
2018-05-14T12:35:51.449Z,731
2018-05-14T12:36:50.858Z,722
2018-05-14T12:37:50.800Z,733
2018-05-14T12:38:50.690Z,736
2018-05-14T12:39:50.724Z,715
2018-05-14T12:40:51.667Z,690
2018-05-14T12:41:51.012Z,683
2018-05-14T12:42:50.922Z,703
2018-05-14T12:44:11.747Z,702
2018-05-14T12:45:33.680Z,705
2018-05-14T12:46:34.259Z,724
2018-05-14T12:47:34.491Z,721
2018-05-14T12:48:56.652Z,704
2018-05-14T12:49:57.527Z,709
2018-05-14T12:50:56.412Z,708
2018-05-14T12:51:56.407Z,693
2018-05-14T12:53:17.286Z,699
2018-05-14T12:54:18.202Z,709
2018-05-14T12:55:18.536Z,682
2018-05-14T12:56:17.206Z,705
2018-05-14T12:57:18.022Z,692
2018-05-14T12:58:17.852Z,630
2018-05-14T12:59:17.764Z,624
2018-05-14T13:00:41.237Z,688
2018-05-14T13:01:41.411Z,619
2018-05-14T13:02:42.368Z,572
2018-05-14T13:04:02.221Z,558
2018-05-14T13:05:03.413Z,590
2018-05-14T13:06:03.515Z,640
2018-05-14T13:07:03.409Z,597
2018-05-14T13:08:03.315Z,684
2018-05-14T13:09:02.149Z,675
2018-05-14T13:10:04.217Z,664
2018-05-14T13:11:02.232Z,599
2018-05-14T13:12:04.845Z,652
2018-05-14T13:13:03.407Z,663
2018-05-14T13:14:03.637Z,638
2018-05-14T13:15:23.590Z,596
2018-05-14T13:16:24.702Z,587
2018-05-14T13:17:24.019Z,297
2018-05-14T13:18:24.344Z,600
2018-05-14T13:19:25.372Z,611
2018-05-14T13:20:24.273Z,602
2018-05-14T13:21:24.492Z,582
2018-05-14T13:22:24.323Z,568
2018-05-14T13:23:24.284Z,597
2018-05-14T13:24:24.684Z,635
2018-05-14T13:25:44.623Z,568
2018-05-14T13:26:44.824Z,467
2018-05-14T13:27:45.621Z,535
2018-05-14T13:28:44.416Z,190
2018-05-14T13:29:44.232Z,630
2018-05-14T13:30:44.241Z,625
2018-05-14T13:31:45.066Z,158
2018-05-14T13:32:45.279Z,155
2018-05-14T13:33:44.209Z,686
2018-05-14T13:34:44.137Z,616
2018-05-14T13:35:45.332Z,165
2018-05-14T13:36:44.120Z,257
2018-05-14T13:37:45.327Z,154
2018-05-14T13:38:44.501Z,147
2018-05-14T13:39:44.718Z,487
2018-05-14T13:41:05.551Z,117
2018-05-14T13:42:06.120Z,595
2018-05-14T13:43:06.957Z,586
2018-05-14T13:44:06.261Z,573
2018-05-14T13:45:06.182Z,576
2018-05-14T13:46:06.387Z,562
2018-05-14T13:47:05.355Z,551
2018-05-14T13:48:05.733Z,553
2018-05-14T13:49:05.764Z,551
2018-05-14T13:50:05.524Z,576
2018-05-14T13:51:05.591Z,582
2018-05-14T13:52:05.661Z,567
2018-05-14T13:53:06.568Z,557
2018-05-14T13:54:05.804Z,557
2018-05-14T13:55:05.797Z,548
2018-05-14T13:56:06.673Z,560
2018-05-14T13:57:05.748Z,574
2018-05-14T13:58:47.367Z,558
2018-05-14T13:59:47.593Z,536
2018-05-14T14:00:47.475Z,517
2018-05-14T14:01:47.448Z,507
2018-05-14T14:03:29.855Z,521
2018-05-14T14:04:29.957Z,545
2018-05-14T14:05:29.927Z,517
2018-05-14T14:06:29.720Z,509
2018-05-14T14:07:29.571Z,519
2018-05-14T14:08:29.651Z,528
2018-05-14T14:09:29.915Z,541
2018-05-14T14:10:29.611Z,538
2018-05-14T14:11:29.564Z,530
2018-05-14T14:12:29.477Z,531
2018-05-14T14:13:29.484Z,552
2018-05-14T14:14:29.655Z,558
2018-05-14T14:15:29.518Z,548
2018-05-14T14:16:29.228Z,375
2018-05-14T14:17:29.207Z,508
2018-05-14T14:18:50.973Z,541
2018-05-14T14:19:52.267Z,542
2018-05-14T14:20:51.635Z,382
2018-05-14T14:22:12.210Z,431
2018-05-14T14:23:13.571Z,294
2018-05-14T14:24:12.623Z,464
2018-05-14T14:25:12.967Z,244
2018-05-14T14:26:14.486Z,125
2018-05-14T14:27:12.658Z,454
2018-05-14T14:28:12.712Z,464
2018-05-14T14:29:14.133Z,487
2018-05-14T14:30:13.327Z,475
2018-05-14T14:31:12.844Z,471
2018-05-14T14:32:12.962Z,471
2018-05-14T14:33:33.974Z,461
2018-05-14T14:34:34.016Z,455
2018-05-14T14:35:34.334Z,456
2018-05-14T14:36:34.534Z,455
2018-05-14T14:37:35.806Z,439
2018-05-14T14:38:34.191Z,460
2018-05-14T14:39:55.566Z,456
2018-05-14T14:40:55.747Z,460
2018-05-14T14:42:17.847Z,466
2018-05-14T14:43:18.060Z,472
2018-05-14T14:44:17.069Z,494
2018-05-14T14:45:18.330Z,496
2018-05-14T14:46:17.323Z,490
2018-05-14T14:47:17.632Z,492
2018-05-14T14:48:18.114Z,504